Time;durP1;ratioP1;P1;durP2;ratioP2;P2;SDS_P1;SDS_P2;PMS_P1;PMS_P2;Temp;Humidity;BMP_temperature;BMP_pressure;BME280_temperature;BME280_humidity;BME280_pressure;Samples;Min_cycle;Max_cycle;Signal;HPM_P1;HPM_P2
2024/04/18 00:02:05;;;;;;;16.80;9.50;;;;;;;1.85;100.00;100708.75;5479165;26;20358;-78
2024/04/18 00:04:35;;;;;;;14.30;9.38;;;;;;;1.68;100.00;100711.19;5454004;26;20913;-78
2024/04/18 00:07:04;;;;;;;16.50;9.32;;;;;;;1.52;100.00;100704.53;5473048;26;20318;-79
2024/04/18 00:09:34;;;;;;;14.95;9.00;;;;;;;1.43;100.00;100703.97;5476656;26;20353;-78
2024/04/18 00:12:05;;;;;;;17.25;10.50;;;;;;;1.41;100.00;100705.22;5479652;26;20315;-78
2024/04/18 00:14:49;;;;;;;17.15;9.75;;;;;;;1.45;100.00;100709.94;5477364;26;20314;-78
2024/04/18 00:17:17;;;;;;;14.98;9.38;;;;;;;1.49;100.00;100704.94;5477468;26;20354;-78
2024/04/18 00:19:47;;;;;;;15.65;8.80;;;;;;;1.48;100.00;100709.50;5477983;26;20318;-78
2024/04/18 00:22:30;;;;;;;14.15;8.82;;;;;;;1.48;100.00;100712.19;5480460;26;20386;-78
2024/04/18 00:25:06;;;;;;;14.07;8.63;;;;;;;1.50;100.00;100710.09;5474512;26;20796;-78
2024/04/18 00:27:57;;;;;;;15.52;8.75;;;;;;;1.61;100.00;100715.78;5447305;26;20365;-78
2024/04/18 00:30:40;;;;;;;14.83;8.57;;;;;;;1.65;100.00;100717.00;5480014;26;20717;-78
2024/04/18 00:33:10;;;;;;;17.08;8.68;;;;;;;1.77;100.00;100712.56;5478321;26;20393;-78
2024/04/18 00:35:37;;;;;;;15.10;8.40;;;;;;;1.68;100.00;100722.72;5476262;26;20310;-78
2024/04/18 00:38:13;;;;;;;16.42;8.30;;;;;;;1.67;100.00;100717.59;5448682;26;20864;-78
2024/04/18 00:40:41;;;;;;;14.98;8.75;;;;;;;1.63;100.00;100725.28;5476468;26;20352;-77
2024/04/18 00:43:24;;;;;;;14.23;8.18;;;;;;;1.51;100.00;100727.03;5446778;26;20385;-78
2024/04/18 00:45:52;;;;;;;15.05;8.80;;;;;;;1.42;100.00;100728.31;5479817;26;20738;-78
2024/04/18 00:48:23;;;;;;;15.00;8.63;;;;;;;1.35;100.00;100733.72;5479063;26;20352;-78
2024/04/18 00:50:52;;;;;;;13.75;8.23;;;;;;;1.29;100.00;100726.56;5479553;26;20436;-78
2024/04/18 00:53:24;;;;;;;15.18;9.13;;;;;;;1.28;100.00;100733.75;5478533;26;20383;-78
2024/04/18 00:55:52;;;;;;;13.93;8.38;;;;;;;1.29;100.00;100726.56;5473536;26;20326;-78
2024/04/18 00:58:46;;;;;;;14.02;8.85;;;;;;;1.22;100.00;100729.28;5473721;26;20318;-78
2024/04/18 01:01:20;;;;;;;14.45;8.45;;;;;;;1.22;100.00;100729.28;5477252;26;20666;-79
2024/04/18 01:03:57;;;;;;;13.73;8.60;;;;;;;1.15;100.00;100734.69;5442813;26;20327;-79
2024/04/18 01:06:44;;;;;;;15.05;8.48;;;;;;;1.11;100.00;100732.66;5477043;26;20311;-78
2024/04/18 01:09:15;;;;;;;13.82;8.10;;;;;;;1.10;100.00;100731.81;5478708;26;20378;-78
2024/04/18 01:12:04;;;;;;;15.95;8.20;;;;;;;1.12;100.00;100736.97;5478658;26;20357;-78
2024/04/18 01:14:34;;;;;;;13.93;8.02;;;;;;;1.11;100.00;100746.06;5468224;26;20385;-78
2024/04/18 01:17:05;;;;;;;12.40;7.50;;;;;;;1.03;100.00;100739.09;5469586;26;20709;-79
2024/04/18 01:19:32;;;;;;;14.00;7.78;;;;;;;1.06;100.00;100740.50;5468558;26;20348;-78
2024/04/18 01:22:03;;;;;;;16.27;7.78;;;;;;;1.04;100.00;100732.69;5429011;26;20362;-79
2024/04/18 01:24:33;;;;;;;12.53;7.83;;;;;;;1.05;100.00;100746.91;5439771;26;20321;-78
2024/04/18 01:27:04;;;;;;;15.38;7.90;;;;;;;1.03;100.00;100747.13;5468656;26;20326;-78
2024/04/18 01:29:46;;;;;;;13.90;7.93;;;;;;;1.00;100.00;100742.19;5473970;26;20685;-79
2024/04/18 01:32:33;;;;;;;12.07;7.30;;;;;;;0.96;100.00;100749.84;5468814;26;20666;-78
2024/04/18 01:35:03;;;;;;;14.07;7.57;;;;;;;0.92;100.00;100751.28;5469699;26;20368;-78
2024/04/18 01:37:49;;;;;;;14.85;7.95;;;;;;;0.91;100.00;100752.34;5469642;26;20325;-78
2024/04/18 01:40:16;;;;;;;12.77;7.37;;;;;;;0.90;100.00;100748.03;5470483;26;20721;-78
2024/04/18 01:43:09;;;;;;;15.13;7.97;;;;;;;0.89;100.00;100749.06;5466798;26;20446;-78
2024/04/18 01:45:57;;;;;;;13.90;7.80;;;;;;;0.90;100.00;100756.06;5467687;26;20743;-79
2024/04/18 01:48:27;;;;;;;13.27;8.02;;;;;;;0.90;100.00;100755.22;5465412;26;20326;-78
2024/04/18 01:51:13;;;;;;;13.15;7.65;;;;;;;0.88;100.00;100758.13;5471749;26;20310;-78
2024/04/18 01:53:43;;;;;;;13.35;7.40;;;;;;;0.85;100.00;100748.66;5470645;26;20318;-78
2024/04/18 01:56:19;;;;;;;14.52;7.97;;;;;;;0.88;100.00;100754.63;5461566;26;20333;-80
2024/04/18 01:58:51;;;;;;;13.85;7.47;;;;;;;0.84;100.00;100757.75;5438423;26;20318;-78
2024/04/18 02:01:23;;;;;;;12.77;7.13;;;;;;;0.78;100.00;100755.91;5470344;26;20310;-78
2024/04/18 02:03:53;;;;;;;11.93;7.03;;;;;;;0.77;100.00;100754.25;5470197;26;20794;-78
2024/04/18 02:06:21;;;;;;;12.88;7.00;;;;;;;0.85;100.00;100755.88;5474240;26;20411;-78
2024/04/18 02:08:51;;;;;;;12.88;6.75;;;;;;;0.85;100.00;100756.69;5471138;26;20336;-78
2024/04/18 02:11:40;;;;;;;11.77;7.00;;;;;;;0.86;100.00;100760.22;5476979;26;20407;-78
2024/04/18 02:14:16;;;;;;;12.00;6.90;;;;;;;0.84;100.00;100755.06;5440884;26;21227;-78
2024/04/18 02:16:43;;;;;;;12.63;7.03;;;;;;;0.90;100.00;100757.91;5470133;26;21569;-78
2024/04/18 02:19:26;;;;;;;13.93;7.17;;;;;;;0.87;100.00;100761.00;5439950;26;21013;-78
2024/04/18 02:22:12;;;;;;;13.77;6.90;;;;;;;0.79;100.00;100762.09;5469367;26;20463;-78
2024/04/18 02:25:09;;;;;;;12.80;6.82;;;;;;;0.75;100.00;100769.72;5442624;26;20318;-78
2024/04/18 02:27:37;;;;;;;11.85;6.43;;;;;;;0.80;100.00;100766.41;5443024;26;20377;-79
2024/04/18 02:30:28;;;;;;;14.57;7.17;;;;;;;0.95;100.00;100776.84;5470893;26;20329;-78
2024/04/18 02:33:13;;;;;;;13.77;6.53;;;;;;;0.89;100.00;100775.84;5475669;26;20326;-79
2024/04/18 02:35:49;;;;;;;11.85;6.72;;;;;;;0.91;100.00;100772.94;5481418;26;21190;-78
2024/04/18 02:38:35;;;;;;;15.60;6.47;;;;;;;0.93;100.00;100774.38;5470757;26;20818;-79
2024/04/18 02:41:06;;;;;;;12.15;6.78;;;;;;;0.89;100.00;100775.84;5443084;26;20369;-78
2024/04/18 02:43:53;;;;;;;11.35;6.28;;;;;;;0.93;100.00;100774.38;5473255;26;20318;-78
2024/04/18 02:46:26;;;;;;;12.07;6.70;;;;;;;0.88;100.00;100776.06;5460137;26;20822;-78
2024/04/18 02:49:12;;;;;;;12.52;6.63;;;;;;;0.81;100.00;100774.22;5474298;26;20319;-78
2024/04/18 02:51:57;;;;;;;11.40;6.80;;;;;;;0.80;100.00;100782.47;5445457;26;20322;-78
2024/04/18 02:54:43;;;;;;;12.65;6.45;;;;;;;0.79;100.00;100784.34;5438076;26;20332;-78
2024/04/18 02:57:13;;;;;;;12.00;6.57;;;;;;;0.81;100.00;100778.78;5434656;26;20366;-78
2024/04/18 02:59:40;;;;;;;13.02;6.60;;;;;;;0.79;100.00;100784.34;5468312;26;20352;-77
2024/04/18 03:02:29;;;;;;;12.67;6.87;;;;;;;0.75;100.00;100777.75;5470034;26;20360;-78
2024/04/18 03:05:16;;;;;;;13.73;6.67;;;;;;;0.76;100.00;100784.78;5473260;26;21073;-78
2024/04/18 03:07:46;;;;;;;13.50;6.65;;;;;;;0.75;100.00;100780.44;5472206;26;20326;-78
2024/04/18 03:10:14;;;;;;;12.05;6.63;;;;;;;0.72;100.00;100788.91;5473376;26;20332;-79
2024/04/18 03:13:02;;;;;;;14.70;6.72;;;;;;;0.67;100.00;100781.50;5474626;26;21184;-78
2024/04/18 03:15:48;;;;;;;12.43;6.70;;;;;;;0.62;100.00;100784.00;5471686;26;20319;-78
2024/04/18 03:18:21;;;;;;;13.35;6.95;;;;;;;0.61;100.00;100785.03;5471265;26;20334;-77
2024/04/18 03:21:05;;;;;;;13.50;7.15;;;;;;;0.60;100.00;100782.56;5442832;26;20350;-78
2024/04/18 03:23:44;;;;;;;13.27;7.87;;;;;;;0.58;100.00;100784.63;5472472;26;20458;-78
2024/04/18 03:26:32;;;;;;;14.98;8.25;;;;;;;0.57;100.00;100785.66;5471465;26;20322;-78
2024/04/18 03:29:02;;;;;;;14.60;7.57;;;;;;;0.55;100.00;100785.84;5440813;26;20325;-78
2024/04/18 03:31:29;;;;;;;17.17;8.10;;;;;;;0.53;100.00;100787.13;5473210;26;20307;-78
2024/04/18 03:34:02;;;;;;;14.47;8.00;;;;;;;0.50;100.00;100780.31;5438840;26;20381;-78
2024/04/18 03:36:29;;;;;;;14.10;7.50;;;;;;;0.50;100.00;100793.72;5467916;26;20342;-78
2024/04/18 03:39:00;;;;;;;15.80;8.38;;;;;;;0.44;100.00;100791.88;5469467;26;20327;-77
2024/04/18 03:41:30;;;;;;;15.63;7.90;;;;;;;0.40;100.00;100793.31;5471805;26;20901;-78
2024/04/18 03:44:18;;;;;;;15.57;7.70;;;;;;;0.38;100.00;100795.41;5473057;26;20812;-78
2024/04/18 03:46:48;;;;;;;14.70;8.03;;;;;;;0.39;100.00;100802.38;5442611;26;20334;-78
2024/04/18 03:49:38;;;;;;;15.05;8.65;;;;;;;0.37;100.00;100799.91;5462733;26;20368;-78
2024/04/18 03:52:05;;;;;;;15.60;8.25;;;;;;;0.35;100.00;100801.97;5470970;26;20326;-79
2024/04/18 03:54:35;;;;;;;15.40;8.27;;;;;;;0.34;100.00;100801.16;5472274;26;20674;-79
2024/04/18 03:57:03;;;;;;;16.40;8.88;;;;;;;0.40;100.00;100799.50;5469267;26;20367;-79
2024/04/18 03:59:34;;;;;;;17.25;9.05;;;;;;;0.42;100.00;100802.78;5468828;26;20327;-79
2024/04/18 04:02:02;;;;;;;17.27;9.25;;;;;;;0.45;100.00;100806.91;5469084;26;20318;-78
2024/04/18 04:04:32;;;;;;;17.50;9.20;;;;;;;0.46;100.00;100800.53;5469444;26;20318;-78
2024/04/18 04:07:05;;;;;;;19.93;9.83;;;;;;;0.46;100.00;100809.38;5469364;26;20322;-78
2024/04/18 04:09:32;;;;;;;19.52;9.23;;;;;;;0.46;100.00;100812.03;5466980;26;20689;-79
2024/04/18 04:12:04;;;;;;;17.67;9.93;;;;;;;0.44;100.00;100811.44;5473276;26;20326;-78
2024/04/18 04:14:51;;;;;;;16.70;9.68;;;;;;;0.41;100.00;100811.03;5467243;26;20330;-78
2024/04/18 04:17:21;;;;;;;17.50;9.35;;;;;;;0.38;100.00;100822.16;5444647;26;20360;-78
2024/04/18 04:20:05;;;;;;;20.42;9.60;;;;;;;0.33;100.00;100826.28;5471084;26;20357;-78
2024/04/18 04:22:38;;;;;;;20.10;8.98;;;;;;;0.31;100.00;100820.31;5474988;26;20332;-78
2024/04/18 04:25:35;;;;;;;16.25;9.02;;;;;;;0.31;100.00;100835.56;5452071;26;20365;-78
2024/04/18 04:28:05;;;;;;;15.93;8.95;;;;;;;0.29;100.00;100846.47;5470182;26;21105;-78
2024/04/18 04:30:37;;;;;;;16.02;8.75;;;;;;;0.30;100.00;100842.78;5467859;26;20853;-78
2024/04/18 04:33:05;;;;;;;18.63;9.33;;;;;;;0.33;100.00;100846.88;5443909;26;20318;-78
2024/04/18 04:35:35;;;;;;;19.40;9.23;;;;;;;0.33;100.00;100846.88;5440226;26;20346;-78
2024/04/18 04:38:05;;;;;;;17.03;9.20;;;;;;;0.33;100.00;100850.38;5442763;26;20322;-78
2024/04/18 04:40:35;;;;;;;17.10;9.27;;;;;;;0.32;100.00;100851.41;5478397;26;21242;-78
2024/04/18 04:43:03;;;;;;;19.47;9.20;;;;;;;0.33;100.00;100852.22;5477435;26;20500;-78
2024/04/18 04:45:33;;;;;;;15.67;8.70;;;;;;;0.34;100.00;100849.34;5474777;26;20360;-77
2024/04/18 04:48:07;;;;;;;17.17;8.00;;;;;;;0.40;100.00;100854.91;5477883;26;20897;-78
2024/04/18 04:50:59;;;;;;;16.48;8.50;;;;;;;0.48;100.00;100860.03;5477060;26;20462;-78
2024/04/18 04:53:35;;;;;;;19.98;9.60;;;;;;;0.55;100.00;100863.50;5477066;26;20369;-78
2024/04/18 04:56:05;;;;;;;17.35;9.05;;;;;;;0.58;100.00;100859.59;5476589;26;20370;-78
2024/04/18 04:58:33;;;;;;;16.38;9.23;;;;;;;0.67;100.00;100861.03;5439925;26;20333;-78
2024/04/18 05:01:03;;;;;;;17.55;9.60;;;;;;;0.90;100.00;100863.25;5477417;26;20352;-79
2024/04/18 05:03:36;;;;;;;20.27;10.10;;;;;;;1.65;100.00;100870.72;5473540;26;20385;-79
2024/04/18 05:06:26;;;;;;;18.83;10.20;;;;;;;3.10;100.00;100857.22;5475273;26;20316;-78
2024/04/18 05:09:16;;;;;;;20.85;10.00;;;;;;;4.64;100.00;100857.59;5477840;26;20662;-78
2024/04/18 05:11:46;;;;;;;16.60;9.55;;;;;;;5.75;100.00;100863.81;5443276;26;20358;-79
2024/04/18 05:14:32;;;;;;;13.40;7.60;;;;;;;6.93;100.00;100870.25;5477695;26;20364;-79
2024/04/18 05:17:22;;;;;;;11.30;6.87;;;;;;;7.47;100.00;100874.94;5463238;26;20761;-79
2024/04/18 05:20:10;;;;;;;11.25;6.50;;;;;;;6.41;100.00;100888.44;5478836;26;20877;-78
2024/04/18 05:22:40;;;;;;;12.23;6.90;;;;;;;5.75;100.00;100888.13;5477936;26;20378;-78
2024/04/18 05:25:10;;;;;;;13.73;7.32;;;;;;;5.22;100.00;100890.06;5476541;26;21196;-79
2024/04/18 05:27:44;;;;;;;13.38;7.20;;;;;;;4.46;100.00;100890.88;5445952;26;20375;-78
2024/04/18 05:33:20;;;;;;;13.23;7.07;;;;;;;3.56;100.00;100896.19;5470461;26;20323;-78
2024/04/18 05:35:50;;;;;;;13.02;7.53;;;;;;;3.40;100.00;100902.19;5474065;26;20326;-80
2024/04/18 05:38:21;;;;;;;15.10;7.57;;;;;;;3.36;100.00;100896.44;5454048;26;21220;-78
2024/04/18 05:40:54;;;;;;;11.93;7.10;;;;;;;3.37;100.00;100898.06;5475334;26;20314;-79
2024/04/18 05:43:43;;;;;;;13.40;7.25;;;;;;;3.39;100.00;100889.78;5475826;26;20360;-78
2024/04/18 05:46:14;;;;;;;11.20;6.88;;;;;;;3.46;100.00;100898.56;5443940;26;20684;-77
2024/04/18 05:48:44;;;;;;;13.98;7.28;;;;;;;3.51;100.00;100900.59;5473080;26;20330;-78
2024/04/18 05:51:17;;;;;;;12.87;6.97;;;;;;;3.59;100.00;100900.28;5468812;26;20365;-77
2024/04/18 05:54:07;;;;;;;13.10;7.47;;;;;;;3.64;100.00;100902.28;5471442;26;20314;-77
2024/04/18 05:57:00;;;;;;;11.90;6.30;;;;;;;3.71;100.00;100905.69;5470192;26;22708;-79
2024/04/18 05:59:50;;;;;;;11.50;6.45;;;;;;;3.76;100.00;100900.47;5475847;26;20317;-77
2024/04/18 06:02:20;;;;;;;12.30;6.32;;;;;;;3.87;100.00;100905.06;5423262;26;20318;-77
2024/04/18 06:04:50;;;;;;;10.32;6.22;;;;;;;4.02;100.00;100899.25;5435087;26;20364;-77
2024/04/18 06:07:43;;;;;;;11.88;6.03;;;;;;;4.12;100.00;100917.53;5446421;26;20695;-78
2024/04/18 06:10:13;;;;;;;11.25;5.88;;;;;;;4.22;100.00;100912.38;5475329;26;21586;-78
2024/04/18 06:12:46;;;;;;;10.73;5.55;;;;;;;4.27;100.00;100917.09;5464222;26;20322;-78
2024/04/18 06:15:16;;;;;;;9.23;5.43;;;;;;;4.34;100.00;100917.00;5462387;26;20348;-78
2024/04/18 06:17:46;;;;;;;10.38;5.75;;;;;;;4.34;100.00;100922.38;5475712;26;20323;-78
2024/04/18 06:20:16;;;;;;;9.75;5.15;;;;;;;4.40;100.00;100926.81;5478215;26;20329;-78
2024/04/18 06:22:46;;;;;;;9.60;5.07;;;;;;;4.44;100.00;100917.22;5464305;26;20322;-79
2024/04/18 06:25:26;;;;;;;8.45;4.55;;;;;;;4.49;100.00;100924.59;5458832;26;20385;-79
2024/04/18 06:27:58;;;;;;;9.77;4.82;;;;;;;4.66;100.00;100922.06;5444836;26;20334;-80
2024/04/18 06:30:29;;;;;;;9.65;4.70;;;;;;;4.70;100.00;100924.03;5476533;26;20360;-77
2024/04/18 06:32:59;;;;;;;9.80;4.68;;;;;;;4.76;100.00;100928.50;5431176;26;20392;-78
2024/04/18 06:35:29;;;;;;;9.80;5.40;;;;;;;4.84;100.00;100935.41;5479634;26;20393;-79
2024/04/18 06:37:59;;;;;;;9.13;4.90;;;;;;;4.93;100.00;100930.50;5474311;26;20822;-79
2024/04/18 06:40:29;;;;;;;10.73;5.80;;;;;;;5.15;100.00;100936.09;5467341;26;20333;-78
2024/04/18 06:43:02;;;;;;;13.38;7.30;;;;;;;5.27;100.00;100936.06;5473512;26;20370;-77
2024/04/18 06:45:33;;;;;;;16.27;9.07;;;;;;;5.27;100.00;100944.16;5473364;26;20326;-77
2024/04/18 06:48:03;;;;;;;12.50;6.63;;;;;;;5.34;100.00;100946.72;5475758;26;20395;-77
2024/04/18 06:50:33;;;;;;;11.00;5.80;;;;;;;5.42;100.00;100944.47;5474696;26;21127;-79
2024/04/18 06:53:03;;;;;;;11.15;6.18;;;;;;;5.59;100.00;100946.41;5436763;26;20361;-79
2024/04/18 06:55:34;;;;;;;9.68;5.35;;;;;;;5.52;100.00;100949.25;5473532;26;20341;-78
2024/04/18 06:58:06;;;;;;;10.65;5.40;;;;;;;5.57;100.00;100943.94;5473634;26;20330;-77
2024/04/18 07:00:38;;;;;;;9.68;5.30;;;;;;;5.64;100.00;100948.41;5475266;26;20358;-78
2024/04/18 07:03:11;;;;;;;10.82;5.32;;;;;;;5.77;100.00;100945.41;5474557;26;20360;-77
2024/04/18 07:05:53;;;;;;;10.47;5.20;;;;;;;5.71;100.00;100946.38;5461794;26;20501;-78
2024/04/18 07:08:24;;;;;;;8.68;4.75;;;;;;;5.88;100.00;100963.47;5470099;26;20325;-78
2024/04/18 07:10:55;;;;;;;10.93;4.95;;;;;;;5.94;100.00;100956.28;5476955;26;21262;-77
2024/04/18 07:13:35;;;;;;;8.25;4.53;;;;;;;6.01;100.00;100956.13;5427939;26;20608;-78
2024/04/18 07:16:24;;;;;;;9.48;3.95;;;;;;;5.99;100.00;100960.97;5402985;26;20372;-78
2024/04/18 07:18:57;;;;;;;9.97;4.40;;;;;;;6.03;100.00;100964.81;5422451;26;20323;-79
2024/04/18 07:21:27;;;;;;;9.85;4.45;;;;;;;6.11;100.00;100964.44;5392370;26;20327;-78
2024/04/18 07:24:15;;;;;;;9.25;4.88;;;;;;;6.24;100.00;100966.00;5432487;26;20322;-78
2024/04/18 07:26:46;;;;;;;10.07;4.65;;;;;;;6.33;100.00;100971.84;5405927;26;20326;-78
2024/04/18 07:29:18;;;;;;;10.37;5.40;;;;;;;6.35;100.00;100965.09;5402454;26;20665;-77
2024/04/18 07:31:49;;;;;;;8.15;4.22;;;;;;;6.35;100.00;100967.00;5400733;26;20370;-79
2024/04/18 07:34:16;;;;;;;6.78;3.53;;;;;;;6.19;100.00;100966.75;5428955;26;20318;-78
2024/04/18 07:36:47;;;;;;;10.77;4.57;;;;;;;6.22;100.00;100965.44;5427773;26;20441;-78
2024/04/18 07:39:14;;;;;;;8.00;4.07;;;;;;;6.39;100.00;100963.56;5429073;26;20352;-77
2024/04/18 07:41:44;;;;;;;9.05;3.90;;;;;;;6.52;100.00;100970.53;5430132;26;20330;-78
2024/04/18 07:44:17;;;;;;;7.63;3.90;;;;;;;6.53;100.00;100965.94;5434767;26;20459;-78
2024/04/18 07:46:48;;;;;;;7.13;3.20;;;;;;;6.57;100.00;100967.09;5401124;26;20339;-78
2024/04/18 07:49:18;;;;;;;5.53;2.40;;;;;;;6.39;100.00;100976.25;5437916;26;21980;-78
2024/04/18 07:51:48;;;;;;;6.22;2.75;;;;;;;6.60;100.00;100977.41;5417350;26;20379;-78
2024/04/18 07:54:20;;;;;;;4.67;2.40;;;;;;;6.61;100.00;100970.94;5398497;26;21046;-78
2024/04/18 07:56:50;;;;;;;6.07;2.50;;;;;;;6.73;100.00;100981.69;5402786;26;20450;-78
2024/04/18 07:59:22;;;;;;;5.15;2.10;;;;;;;6.68;100.00;100984.31;5425758;26;21363;-78
2024/04/18 08:01:52;;;;;;;12.77;2.43;;;;;;;6.69;100.00;100983.25;5397234;26;20333;-77
2024/04/18 08:04:22;;;;;;;4.88;2.17;;;;;;;6.86;100.00;100988.66;5409718;26;20338;-78
2024/04/18 08:06:53;;;;;;;3.35;1.73;;;;;;;6.75;100.00;100984.97;5441730;26;20348;-78
2024/04/18 08:09:28;;;;;;;4.90;1.88;;;;;;;6.89;100.00;100994.38;5434762;26;20334;-77
2024/04/18 08:11:58;;;;;;;3.28;1.60;;;;;;;6.86;100.00;100992.16;5392542;26;20334;-78
2024/04/18 08:14:31;;;;;;;2.67;1.50;;;;;;;6.70;100.00;100985.72;5387348;26;20502;-78
2024/04/18 08:17:01;;;;;;;3.88;1.75;;;;;;;6.64;100.00;100984.81;5422480;26;20451;-79
2024/04/18 08:19:31;;;;;;;2.25;1.17;;;;;;;6.71;100.00;100981.09;5379113;26;20358;-77
2024/04/18 08:22:01;;;;;;;2.50;1.00;;;;;;;6.77;100.00;100988.25;5413133;26;21072;-77
2024/04/18 08:24:33;;;;;;;2.05;1.20;;;;;;;6.84;100.00;100999.72;5429357;26;20334;-78
2024/04/18 08:27:09;;;;;;;4.43;1.30;;;;;;;6.86;100.00;100994.06;5429812;26;20330;-78
2024/04/18 08:29:39;;;;;;;2.50;1.30;;;;;;;7.04;100.00;100987.56;5427332;26;20346;-78
2024/04/18 08:32:10;;;;;;;1.63;1.00;;;;;;;7.13;100.00;100989.59;5426335;26;22712;-78
2024/04/18 08:34:40;;;;;;;1.60;1.00;;;;;;;7.17;100.00;100980.97;5413935;26;20338;-78
2024/04/18 08:37:10;;;;;;;2.60;1.00;;;;;;;7.23;100.00;100982.69;5404425;26;20683;-77
2024/04/18 08:39:40;;;;;;;3.23;1.60;;;;;;;7.38;100.00;100984.78;5427378;26;20315;-78
2024/04/18 08:42:13;;;;;;;2.13;1.30;;;;;;;7.50;100.00;100985.47;5421872;26;20331;-78
2024/04/18 08:44:49;;;;;;;2.70;0.95;;;;;;;7.52;100.00;100988.75;5423468;26;20348;-78
2024/04/18 08:47:20;;;;;;;1.90;1.25;;;;;;;7.49;100.00;100978.41;5423777;26;20353;-79
2024/04/18 08:49:52;;;;;;;3.28;1.40;;;;;;;7.46;100.00;100987.06;5423035;26;20326;-78
2024/04/18 08:52:22;;;;;;;1.98;1.20;;;;;;;7.58;100.00;100986.91;5418517;26;20342;-78
2024/04/18 08:54:53;;;;;;;3.97;1.42;;;;;;;7.64;100.00;100986.72;5427200;26;20330;-79
2024/04/18 08:57:26;;;;;;;2.80;1.38;;;;;;;7.64;100.00;100980.50;5392708;26;20342;-77
2024/04/18 09:00:04;;;;;;;3.22;1.48;;;;;;;7.55;100.00;100984.72;5429607;26;21312;-78
2024/04/18 09:02:34;;;;;;;2.40;1.10;;;;;;;7.48;100.00;100980.31;5424027;26;20338;-77
2024/04/18 09:05:04;;;;;;;4.07;1.40;;;;;;;7.58;100.00;100976.91;5444852;26;20340;-79
2024/04/18 09:07:34;;;;;;;4.17;1.60;;;;;;;7.59;100.00;100980.44;5426116;26;20327;-78
2024/04/18 09:10:06;;;;;;;2.20;1.20;;;;;;;7.58;100.00;100978.78;5430942;26;20938;-78
2024/04/18 09:12:37;;;;;;;3.28;1.60;;;;;;;7.59;100.00;100977.72;5392916;26;20329;-77
2024/04/18 09:15:10;;;;;;;2.72;1.60;;;;;;;7.77;100.00;100968.44;5363785;26;20346;-78
2024/04/18 09:17:40;;;;;;;2.03;1.20;;;;;;;8.06;100.00;100968.22;5418584;26;20364;-78
2024/04/18 09:20:11;;;;;;;2.00;1.00;;;;;;;8.02;88.50;100964.38;5390653;26;21027;-78
2024/04/18 09:22:41;;;;;;;2.67;1.20;;;;;;;8.08;100.00;100976.91;5435047;26;20363;-78
2024/04/18 09:25:12;;;;;;;1.45;1.00;;;;;;;7.95;82.95;100968.09;5436620;26;20344;-77
2024/04/18 09:27:42;;;;;;;2.70;1.35;;;;;;;8.03;92.16;100966.03;5390139;26;20342;-79
2024/04/18 09:30:16;;;;;;;5.00;1.67;;;;;;;8.01;92.67;100966.28;5423406;26;20334;-78
2024/04/18 09:32:46;;;;;;;4.43;2.13;;;;;;;8.21;100.00;100968.34;5436829;26;20334;-78
2024/04/18 09:35:18;;;;;;;7.15;3.20;;;;;;;8.34;100.00;100977.97;5430175;26;20369;-77
2024/04/18 09:37:50;;;;;;;6.63;3.30;;;;;;;8.41;100.00;100964.19;5440509;26;20357;-77
2024/04/18 09:40:20;;;;;;;6.05;3.20;;;;;;;8.50;100.00;100968.09;5418953;26;20685;-79
2024/04/18 09:42:55;;;;;;;11.30;4.68;;;;;;;8.86;100.00;100973.78;5428688;26;20344;-78
2024/04/18 09:45:38;;;;;;;7.75;3.10;;;;;;;8.82;100.00;100965.38;5410646;26;20337;-78
2024/04/18 09:48:09;;;;;;;9.13;3.28;;;;;;;9.09;100.00;100961.72;5444127;26;20892;-78
2024/04/18 09:50:41;;;;;;;8.57;3.57;;;;;;;9.31;100.00;100958.06;5435076;26;20355;-78
2024/04/18 09:53:13;;;;;;;4.40;2.33;;;;;;;9.36;91.99;100960.78;5410840;26;20398;-78
2024/04/18 09:55:44;;;;;;;3.85;1.80;;;;;;;9.46;91.20;100952.69;5435900;26;20343;-79
2024/04/18 09:58:16;;;;;;;3.67;2.10;;;;;;;9.81;91.44;100963.94;5440632;26;20364;-78
2024/04/18 10:00:49;;;;;;;5.80;2.78;;;;;;;9.99;85.85;100958.00;5427274;26;20330;-78
2024/04/18 10:03:20;;;;;;;6.95;2.72;;;;;;;10.08;95.44;100955.56;5436260;26;21245;-79
2024/04/18 10:05:55;;;;;;;6.30;3.15;;;;;;;9.69;91.92;100951.41;5431528;26;20647;-78
2024/04/18 10:08:31;;;;;;;7.10;3.05;;;;;;;9.74;100.00;100958.75;5396955;26;22051;-78
2024/04/18 10:11:01;;;;;;;4.25;2.28;;;;;;;9.69;89.50;100958.72;5437401;26;20643;-78
2024/04/18 10:13:31;;;;;;;7.13;2.10;;;;;;;9.66;89.29;100951.91;5436137;26;20330;-78
2024/04/18 10:16:13;;;;;;;5.17;2.30;;;;;;;9.67;94.70;100953.56;5405209;26;20338;-78
2024/04/18 10:18:44;;;;;;;5.65;1.92;;;;;;;9.56;100.00;100964.69;5426010;26;21182;-78
2024/04/18 10:21:15;;;;;;;4.47;1.50;;;;;;;9.59;91.81;100962.22;5404588;26;20366;-78
2024/04/18 10:23:49;;;;;;;3.72;1.83;;;;;;;9.70;100.00;100953.03;5431825;26;20363;-78
2024/04/18 10:26:21;;;;;;;5.45;2.13;;;;;;;9.82;97.29;100949.28;5419502;26;20326;-78
2024/04/18 10:28:52;;;;;;;6.50;2.25;;;;;;;9.87;100.00;100952.81;5402326;26;23031;-78
2024/04/18 10:31:30;;;;;;;4.97;2.50;;;;;;;9.96;100.00;100944.13;5445075;26;20322;-79
2024/04/18 10:34:02;;;;;;;6.45;2.50;;;;;;;9.70;100.00;100942.16;5412009;26;22005;-79
2024/04/18 10:36:37;;;;;;;5.28;2.00;;;;;;;9.91;100.00;100944.13;5431141;26;20337;-77
2024/04/18 10:39:07;;;;;;;4.88;2.17;;;;;;;9.96;100.00;100950.38;5431313;26;20376;-77
2024/04/18 10:41:47;;;;;;;2.63;1.50;;;;;;;9.94;82.62;100940.84;5405544;26;20478;-77
2024/04/18 10:44:23;;;;;;;3.53;1.67;;;;;;;10.17;77.30;100936.81;5439197;26;21069;-77
2024/04/18 10:46:57;;;;;;;3.17;1.70;;;;;;;10.09;71.57;100934.63;5425757;26;20344;-77
2024/04/18 10:49:27;;;;;;;3.38;1.70;;;;;;;9.95;89.50;100937.84;5449647;26;20342;-77
2024/04/18 10:51:59;;;;;;;4.70;1.70;;;;;;;10.10;90.05;100941.72;5431373;26;21536;-77
2024/04/18 10:54:30;;;;;;;3.40;1.70;;;;;;;10.10;78.04;100936.28;5434680;26;20901;-77
2024/04/18 10:57:05;;;;;;;4.72;1.90;;;;;;;10.00;79.37;100943.31;5432463;26;20363;-77
2024/04/18 10:59:38;;;;;;;4.70;2.10;;;;;;;10.29;89.49;100939.25;5436459;26;20341;-77
2024/04/18 11:02:11;;;;;;;5.03;2.13;;;;;;;10.30;85.32;100924.56;5433957;26;20372;-77
2024/04/18 11:04:41;;;;;;;5.13;2.05;;;;;;;10.41;79.56;100931.66;5408688;26;20334;-77
2024/04/18 11:07:11;;;;;;;3.60;1.98;;;;;;;10.30;81.83;100930.84;5396339;26;20346;-77
2024/04/18 11:09:43;;;;;;;3.45;1.85;;;;;;;10.16;86.25;100929.72;5433735;26;20968;-77
2024/04/18 11:12:14;;;;;;;4.63;1.92;;;;;;;10.30;79.41;100930.00;5427722;26;20364;-76
2024/04/18 11:14:44;;;;;;;5.05;2.20;;;;;;;10.06;90.39;100918.84;5397118;26;20342;-77
2024/04/18 11:17:17;;;;;;;5.18;1.90;;;;;;;10.10;97.37;100923.47;5434414;26;20322;-77
2024/04/18 11:19:47;;;;;;;4.93;2.30;;;;;;;9.79;86.46;100928.88;5440921;26;23239;-78
2024/04/18 11:22:17;;;;;;;5.85;2.20;;;;;;;9.56;100.00;100930.16;5424781;26;20358;-77
2024/04/18 11:24:47;;;;;;;5.90;2.42;;;;;;;9.59;99.57;100923.38;5434110;26;20330;-77
2024/04/18 11:27:17;;;;;;;6.43;2.20;;;;;;;9.65;92.60;100916.88;5409742;26;20334;-77
2024/04/18 11:29:52;;;;;;;4.10;2.25;;;;;;;9.67;100.00;100917.44;5425396;26;20829;-77
2024/04/18 11:32:25;;;;;;;5.45;2.38;;;;;;;9.85;100.00;100903.31;5424648;26;20330;-77
2024/04/18 11:34:55;;;;;;;4.78;2.20;;;;;;;9.90;94.39;100912.56;5440621;26;20411;-77
2024/04/18 11:37:25;;;;;;;4.45;1.95;;;;;;;9.87;73.96;100900.34;5435235;26;21650;-78
2024/04/18 11:39:57;;;;;;;4.33;2.00;;;;;;;9.90;81.80;100899.78;5429877;26;20326;-77
2024/04/18 11:42:27;;;;;;;4.68;1.95;;;;;;;9.86;75.76;100893.28;5393861;26;20407;-77
2024/04/18 11:44:57;;;;;;;4.50;1.73;;;;;;;9.72;79.38;100894.88;5435830;26;20315;-77
2024/04/18 11:47:30;;;;;;;4.50;1.90;;;;;;;9.85;87.57;100895.16;5421729;26;21431;-77
2024/04/18 11:50:00;;;;;;;6.07;2.10;;;;;;;9.74;82.97;100896.25;5400914;26;20326;-77
2024/04/18 11:52:30;;;;;;;3.90;1.30;;;;;;;9.79;73.52;100890.00;5424700;26;21287;-78
2024/04/18 11:55:00;;;;;;;2.97;1.15;;;;;;;10.07;61.30;100880.50;5424303;26;20865;-77
2024/04/18 11:57:39;;;;;;;2.17;1.10;;;;;;;10.20;63.21;100879.97;5403577;26;20334;-78